sensor_id;sensor_type;location;lat;lon;timestamp;P1;P2;P0
57798;PMS7003;43626;53.866;30.298;2023-04-06T00:01:11;27.4;23.4;15.2
57798;PMS7003;43626;53.866;30.298;2023-04-06T00:06:23;26.6;23.4;15.4
57798;PMS7003;43626;53.866;30.298;2023-04-06T00:11:15;26.6;23.8;15.2
57798;PMS7003;43626;53.866;30.298;2023-04-06T00:15:59;25.8;22;14.5
57798;PMS7003;43626;53.866;30.298;2023-04-06T00:21:05;27.8;23.6;14.8
57798;PMS7003;43626;53.866;30.298;2023-04-06T00:26:41;29.6;25;15.8
57798;PMS7003;43626;53.866;30.298;2023-04-06T00:31:33;24.2;21.8;14.6
57798;PMS7003;43626;53.866;30.298;2023-04-06T00:36:05;27.8;25.4;16
57798;PMS7003;43626;53.866;30.298;2023-04-06T00:41:31;26;24.2;15.4
57798;PMS7003;43626;53.866;30.298;2023-04-06T00:46:05;28.2;24;16
57798;PMS7003;43626;53.866;30.298;2023-04-06T00:51:41;30;25;16.2
57798;PMS7003;43626;53.866;30.298;2023-04-06T00:56:33;28.4;26;16
57798;PMS7003;43626;53.866;30.298;2023-04-06T01:00:59;26.6;24.6;16
57798;PMS7003;43626;53.866;30.298;2023-04-06T01:06:33;29;24.2;15.8
57798;PMS7003;43626;53.866;30.298;2023-04-06T01:11:05;27.6;24.8;16
57798;PMS7003;43626;53.866;30.298;2023-04-06T01:16:40;26.6;24.6;16.4
57798;PMS7003;43626;53.866;30.298;2023-04-06T01:21:40;30;26.3;16.8
57798;PMS7003;43626;53.866;30.298;2023-04-06T01:26:05;30.2;25;16.4
57798;PMS7003;43626;53.866;30.298;2023-04-06T01:31:33;29;26.4;17.2
57798;PMS7003;43626;53.866;30.298;2023-04-06T01:35:59;30.2;25.2;15.8
57798;PMS7003;43626;53.866;30.298;2023-04-06T01:41:39;31.4;25.4;16.8
57798;PMS7003;43626;53.866;30.298;2023-04-06T01:46:33;29.4;26;15.2
57798;PMS7003;43626;53.866;30.298;2023-04-06T01:51:05;30.2;26.8;16.4
57798;PMS7003;43626;53.866;30.298;2023-04-06T01:56:33;28.6;26.2;16.6
57798;PMS7003;43626;53.866;30.298;2023-04-06T02:01:05;31.6;27.6;17.8
57798;PMS7003;43626;53.866;30.298;2023-04-06T02:06:25;31.4;26.8;17
57798;PMS7003;43626;53.866;30.298;2023-04-06T02:11:33;32.4;27.6;17.4
57798;PMS7003;43626;53.866;30.298;2023-04-06T02:15:59;32;28.4;17.2
57798;PMS7003;43626;53.866;30.298;2023-04-06T02:21:33;31;25.5;17
57798;PMS7003;43626;53.866;30.298;2023-04-06T02:25:59;31.2;27.6;17.8
57798;PMS7003;43626;53.866;30.298;2023-04-06T02:31:39;32.8;28.6;18.4
57798;PMS7003;43626;53.866;30.298;2023-04-06T02:36:33;27.8;26.4;16.6
57798;PMS7003;43626;53.866;30.298;2023-04-06T02:40:59;29.2;25.8;16.4
57798;PMS7003;43626;53.866;30.298;2023-04-06T02:46:33;29.6;26.4;16.8
57798;PMS7003;43626;53.866;30.298;2023-04-06T02:51:21;31.4;27.4;17
57798;PMS7003;43626;53.866;30.298;2023-04-06T02:56:41;31;27.4;17.4
57798;PMS7003;43626;53.866;30.298;2023-04-06T03:01:33;31.6;27.4;18
57798;PMS7003;43626;53.866;30.298;2023-04-06T03:05:59;36.6;29.4;17.4
57798;PMS7003;43626;53.866;30.298;2023-04-06T03:11:33;33;28.8;18
57798;PMS7003;43626;53.866;30.298;2023-04-06T03:16:21;35.4;29.4;17.4
57798;PMS7003;43626;53.866;30.298;2023-04-06T03:21:41;36.5;29.8;18.8
57798;PMS7003;43626;53.866;30.298;2023-04-06T03:26:05;31.2;27.4;17.6
57798;PMS7003;43626;53.866;30.298;2023-04-06T03:30:59;33.4;29.2;18.6
57798;PMS7003;43626;53.866;30.298;2023-04-06T03:36:33;35.8;29.8;17.6
57798;PMS7003;43626;53.866;30.298;2023-04-06T03:41:15;34.8;29.6;18.4
57798;PMS7003;43626;53.866;30.298;2023-04-06T03:46:41;31.6;29;17.6
57798;PMS7003;43626;53.866;30.298;2023-04-06T03:50:59;33;28.8;17.8
57798;PMS7003;43626;53.866;30.298;2023-04-06T03:56:05;31.2;26;16.6
57798;PMS7003;43626;53.866;30.298;2023-04-06T04:01:31;33.4;29.4;18.6
57798;PMS7003;43626;53.866;30.298;2023-04-06T04:05:59;32;27.6;17
57798;PMS7003;43626;53.866;30.298;2023-04-06T04:11:41;34;29.2;18
57798;PMS7003;43626;53.866;30.298;2023-04-06T04:16:33;37.2;30.4;18.6
57798;PMS7003;43626;53.866;30.298;2023-04-06T04:21:05;35.3;28.3;16.8
57798;PMS7003;43626;53.866;30.298;2023-04-06T04:26:33;32.6;27.8;17
57798;PMS7003;43626;53.866;30.298;2023-04-06T04:31:15;35.6;28.2;17.2
57798;PMS7003;43626;53.866;30.298;2023-04-06T04:36:39;32.2;28.2;17.6
57798;PMS7003;43626;53.866;30.298;2023-04-06T04:41:21;34.4;30.6;18.8
57798;PMS7003;43626;53.866;30.298;2023-04-06T04:45:59;33;28.2;17.6
57798;PMS7003;43626;53.866;30.298;2023-04-06T04:51:31;30.8;27.2;16.8
57798;PMS7003;43626;53.866;30.298;2023-04-06T04:55:59;32.6;28;17.4
57798;PMS7003;43626;53.866;30.298;2023-04-06T05:01:39;32.8;29.2;18
57798;PMS7003;43626;53.866;30.298;2023-04-06T05:05:59;33.8;28.6;18.4
57798;PMS7003;43626;53.866;30.298;2023-04-06T05:10:59;31.2;27.4;17.6
57798;PMS7003;43626;53.866;30.298;2023-04-06T05:16:33;29.2;25.2;17
57798;PMS7003;43626;53.866;30.298;2023-04-06T05:20:59;31;25.8;16
57798;PMS7003;43626;53.866;30.298;2023-04-06T05:26:41;28.2;25.2;15.6
57798;PMS7003;43626;53.866;30.298;2023-04-06T05:31:27;29.6;26.2;16.8
57798;PMS7003;43626;53.866;30.298;2023-04-06T05:35:59;28.6;24.2;15.4
57798;PMS7003;43626;53.866;30.298;2023-04-06T05:41:33;26.4;23.2;15
57798;PMS7003;43626;53.866;30.298;2023-04-06T05:46:15;29.8;25;15.4
57798;PMS7003;43626;53.866;30.298;2023-04-06T05:51:39;30;26;16
57798;PMS7003;43626;53.866;30.298;2023-04-06T05:56:21;28.8;24.4;15.8
57798;PMS7003;43626;53.866;30.298;2023-04-06T06:00:59;31;25.2;15
57798;PMS7003;43626;53.866;30.298;2023-04-06T06:06:31;28.2;23;13.8
57798;PMS7003;43626;53.866;30.298;2023-04-06T06:11:21;27.6;24;14.4
57798;PMS7003;43626;53.866;30.298;2023-04-06T06:16:39;29;24.6;15
57798;PMS7003;43626;53.866;30.298;2023-04-06T06:21:21;27.4;23.8;13.8
57798;PMS7003;43626;53.866;30.298;2023-04-06T06:26:23;23.3;20.5;13
57798;PMS7003;43626;53.866;30.298;2023-04-06T06:31:31;24.4;20.8;13.4
57798;PMS7003;43626;53.866;30.298;2023-04-06T06:36:21;21.8;19.4;12.8
57798;PMS7003;43626;53.866;30.298;2023-04-06T06:41:37;19.6;17.6;11.8
57798;PMS7003;43626;53.866;30.298;2023-04-06T06:45:59;22.6;19.8;11.2
57798;PMS7003;43626;53.866;30.298;2023-04-06T06:50:59;20.8;18;11.2
57798;PMS7003;43626;53.866;30.298;2023-04-06T06:56:31;19.6;17;10.6
57798;PMS7003;43626;53.866;30.298;2023-04-06T07:01:21;20.3;17.5;11.3
57798;PMS7003;43626;53.866;30.298;2023-04-06T07:06:39;17.2;15.8;10.4
57798;PMS7003;43626;53.866;30.298;2023-04-06T07:11:27;19.6;17.2;11
57798;PMS7003;43626;53.866;30.298;2023-04-06T07:16:05;17.4;16.8;10.4
57798;PMS7003;43626;53.866;30.298;2023-04-06T07:21:31;18.8;17;11.6
57798;PMS7003;43626;53.866;30.298;2023-04-06T07:26:21;19;16.3;10.5
57798;PMS7003;43626;53.866;30.298;2023-04-06T07:31:39;19;16.8;11.2
57798;PMS7003;43626;53.866;30.298;2023-04-06T07:36:21;19.2;16.8;11.6
57798;PMS7003;43626;53.866;30.298;2023-04-06T07:41:11;19.2;16;10.8
57798;PMS7003;43626;53.866;30.298;2023-04-06T07:46:39;20.2;17.2;11.8
57798;PMS7003;43626;53.866;30.298;2023-04-06T07:51:01;17;15.8;11
57798;PMS7003;43626;53.866;30.298;2023-04-06T07:56:39;18.8;17;11.6
57798;PMS7003;43626;53.866;30.298;2023-04-06T08:01:05;19.2;15.8;10.8
57798;PMS7003;43626;53.866;30.298;2023-04-06T08:06:05;18.4;16.4;10.6
57798;PMS7003;43626;53.866;30.298;2023-04-06T08:11:31;19;15.2;9.2
57798;PMS7003;43626;53.866;30.298;2023-04-06T08:16:19;18;15.2;9.4
57798;PMS7003;43626;53.866;30.298;2023-04-06T08:21:23;17.6;15.6;10
57798;PMS7003;43626;53.866;30.298;2023-04-06T08:26:19;17.5;14.8;10
57798;PMS7003;43626;53.866;30.298;2023-04-06T08:31:05;21.2;17;10.4
57798;PMS7003;43626;53.866;30.298;2023-04-06T08:36:00;16.6;14.6;9.8
57798;PMS7003;43626;53.866;30.298;2023-04-06T08:40:59;18.2;16;10
57798;PMS7003;43626;53.866;30.298;2023-04-06T08:46:38;18;15;9.6
57798;PMS7003;43626;53.866;30.298;2023-04-06T08:51:26;18.4;15.2;10
57798;PMS7003;43626;53.866;30.298;2023-04-06T08:56:22;17.2;15;10
57798;PMS7003;43626;53.866;30.298;2023-04-06T09:01:29;19.2;16.8;10.6
57798;PMS7003;43626;53.866;30.298;2023-04-06T09:06:06;17.8;14.2;9.6
57798;PMS7003;43626;53.866;30.298;2023-04-06T09:11:42;17.4;15.6;9.4
57798;PMS7003;43626;53.866;30.298;2023-04-06T09:16:18;16.6;14.6;9.6
57798;PMS7003;43626;53.866;30.298;2023-04-06T09:21:21;17.4;15.2;9.6
57798;PMS7003;43626;53.866;30.298;2023-04-06T09:26:30;16;15.8;10.3
57798;PMS7003;43626;53.866;30.298;2023-04-06T09:30:59;17.8;14.6;9.8
57798;PMS7003;43626;53.866;30.298;2023-04-06T09:36:39;17.4;15.2;9.2
57798;PMS7003;43626;53.866;30.298;2023-04-06T09:41:23;18.4;15;10.2
57798;PMS7003;43626;53.866;30.298;2023-04-06T09:46:00;16;14.4;9.4
57798;PMS7003;43626;53.866;30.298;2023-04-06T09:51:40;16;14.2;9.4
57798;PMS7003;43626;53.866;30.298;2023-04-06T09:56:06;16.8;14.4;9.4
57798;PMS7003;43626;53.866;30.298;2023-04-06T10:01:02;18.4;16.6;10.2
57798;PMS7003;43626;53.866;30.298;2023-04-06T10:06:20;16;14.8;9.6
57798;PMS7003;43626;53.866;30.298;2023-04-06T10:11:15;15;14;9.2
57798;PMS7003;43626;53.866;30.298;2023-04-06T10:16:30;15.2;13.8;8.8
57798;PMS7003;43626;53.866;30.298;2023-04-06T10:21:12;16;14.2;9.8
57798;PMS7003;43626;53.866;30.298;2023-04-06T10:26:35;14.8;13.5;9
57798;PMS7003;43626;53.866;30.298;2023-04-06T10:31:27;16.8;14.6;9.6
57798;PMS7003;43626;53.866;30.298;2023-04-06T10:36:09;17.4;16;10.2
57798;PMS7003;43626;53.866;30.298;2023-04-06T10:41:36;16.2;14;9.2
57798;PMS7003;43626;53.866;30.298;2023-04-06T10:46:00;15.4;13.6;8.8
57798;PMS7003;43626;53.866;30.298;2023-04-06T10:51:38;15.8;14;9.2
57798;PMS7003;43626;53.866;30.298;2023-04-06T10:56:14;18.2;15;9.2
57798;PMS7003;43626;53.866;30.298;2023-04-06T11:01:11;15.6;12.6;7.8
57798;PMS7003;43626;53.866;30.298;2023-04-06T11:06:28;15.2;13.6;9
57798;PMS7003;43626;53.866;30.298;2023-04-06T11:11:07;17;13.6;9.2
57798;PMS7003;43626;53.866;30.298;2023-04-06T11:16:35;15.8;14;9
57798;PMS7003;43626;53.866;30.298;2023-04-06T11:21:14;15.2;13.8;9.2
57798;PMS7003;43626;53.866;30.298;2023-04-06T11:25:59;15.3;13.8;9.8
57798;PMS7003;43626;53.866;30.298;2023-04-06T11:31:29;16;13.8;9.2
57798;PMS7003;43626;53.866;30.298;2023-04-06T11:35:59;15.8;14;9.8
57798;PMS7003;43626;53.866;30.298;2023-04-06T11:41:37;15.8;14;9
57798;PMS7003;43626;53.866;30.298;2023-04-06T11:46:25;15;14;9
57798;PMS7003;43626;53.866;30.298;2023-04-06T11:50:59;15.2;12.8;8.6
57798;PMS7003;43626;53.866;30.298;2023-04-06T11:56:31;15.6;13;9
57798;PMS7003;43626;53.866;30.298;2023-04-06T12:01:03;15.8;14;9.2
57798;PMS7003;43626;53.866;30.298;2023-04-06T12:06:37;15.2;13.8;9
57798;PMS7003;43626;53.866;30.298;2023-04-06T12:10:59;16.4;13.6;9.8
57798;PMS7003;43626;53.866;30.298;2023-04-06T12:15:59;15.8;14;9.2
57798;PMS7003;43626;53.866;30.298;2023-04-06T12:21:29;15.8;13.6;9.2
57798;PMS7003;43626;53.866;30.298;2023-04-06T12:25:59;14.6;12.8;9
57798;PMS7003;43626;53.866;30.298;2023-04-06T12:31:23;17.3;15.3;10
57798;PMS7003;43626;53.866;30.298;2023-04-06T12:36:20;17;14.8;9.8
57798;PMS7003;43626;53.866;30.298;2023-04-06T12:41:05;16;12.8;8.8
57798;PMS7003;43626;53.866;30.298;2023-04-06T12:46:26;14.4;13;8
57798;PMS7003;43626;53.866;30.298;2023-04-06T12:51:12;18.4;14;9.2
57798;PMS7003;43626;53.866;30.298;2023-04-06T12:56:38;13.4;11.6;8
57798;PMS7003;43626;53.866;30.298;2023-04-06T13:01:19;17.6;15;9.6
57798;PMS7003;43626;53.866;30.298;2023-04-06T13:06:06;22.8;19.4;11.8
57798;PMS7003;43626;53.866;30.298;2023-04-06T13:11:29;13.6;12.8;8.2
57798;PMS7003;43626;53.866;30.298;2023-04-06T13:16:00;14;12.8;8.8
57798;PMS7003;43626;53.866;30.298;2023-04-06T13:21:38;15.4;13.4;8.4
57798;PMS7003;43626;53.866;30.298;2023-04-06T13:26:19;22;17.4;10.4
57798;PMS7003;43626;53.866;30.298;2023-04-06T13:31:06;14.8;12.5;8.5
57798;PMS7003;43626;53.866;30.298;2023-04-06T13:36:30;14;12.6;7.8
57798;PMS7003;43626;53.866;30.298;2023-04-06T13:41:07;13.4;11.8;7.6
57798;PMS7003;43626;53.866;30.298;2023-04-06T13:46:37;12;10;6.4
57798;PMS7003;43626;53.866;30.298;2023-04-06T13:51:08;12;10.6;7.8
57798;PMS7003;43626;53.866;30.298;2023-04-06T13:55:59;13;11;7
57798;PMS7003;43626;53.866;30.298;2023-04-06T14:01:28;12.2;11;7.2
57798;PMS7003;43626;53.866;30.298;2023-04-06T14:05:59;13.6;11.8;7.8
57798;PMS7003;43626;53.866;30.298;2023-04-06T14:11:39;13.6;12.4;8.2
57798;PMS7003;43626;53.866;30.298;2023-04-06T14:16:11;14.4;11.2;7.4
57798;PMS7003;43626;53.866;30.298;2023-04-06T14:21:00;12.8;11.6;7.2
57798;PMS7003;43626;53.866;30.298;2023-04-06T14:26:31;15.8;13.4;8.6
57798;PMS7003;43626;53.866;30.298;2023-04-06T14:31:00;13.8;13;8.8
57798;PMS7003;43626;53.866;30.298;2023-04-06T14:36:42;12.6;11.2;7.8
57798;PMS7003;43626;53.866;30.298;2023-04-06T14:41:00;13.8;11.8;7.6
57798;PMS7003;43626;53.866;30.298;2023-04-06T14:46:08;14.4;12.6;8.2
57798;PMS7003;43626;53.866;30.298;2023-04-06T14:51:33;14.2;11.8;8.2
57798;PMS7003;43626;53.866;30.298;2023-04-06T14:56:12;14.8;11.8;8.2
57798;PMS7003;43626;53.866;30.298;2023-04-06T15:01:28;15.2;12.4;8
57798;PMS7003;43626;53.866;30.298;2023-04-06T15:06:00;13.4;11.8;7.6
57798;PMS7003;43626;53.866;30.298;2023-04-06T15:11:00;14.8;12.6;8.6
57798;PMS7003;43626;53.866;30.298;2023-04-06T15:16:32;15.8;14.4;9.6
57798;PMS7003;43626;53.866;30.298;2023-04-06T15:21:14;16.2;14.2;9.4
57798;PMS7003;43626;53.866;30.298;2023-04-06T15:26:40;16.4;14.2;9.6
57798;PMS7003;43626;53.866;30.298;2023-04-06T15:31:20;16.8;14.3;9.8
57798;PMS7003;43626;53.866;30.298;2023-04-06T15:36:19;16.2;14.6;9.2
57798;PMS7003;43626;53.866;30.298;2023-04-06T15:41:30;14.8;13.4;8.6
57798;PMS7003;43626;53.866;30.298;2023-04-06T15:46:08;13.2;12.4;8
57798;PMS7003;43626;53.866;30.298;2023-04-06T15:51:42;14.2;13.4;9
57798;PMS7003;43626;53.866;30.298;2023-04-06T15:56:22;15.2;12.8;9.2
57798;PMS7003;43626;53.866;30.298;2023-04-06T16:01:00;17;13.6;9.8
57798;PMS7003;43626;53.866;30.298;2023-04-06T16:06:34;22.2;18.6;12.6
57798;PMS7003;43626;53.866;30.298;2023-04-06T16:11:00;14.8;13.6;9.4
57798;PMS7003;43626;53.866;30.298;2023-04-06T16:16:40;16;13.6;9.4
57798;PMS7003;43626;53.866;30.298;2023-04-06T16:21:26;19.4;16.8;11.2
57798;PMS7003;43626;53.866;30.298;2023-04-06T16:26:10;22.8;19.4;12.2
57798;PMS7003;43626;53.866;30.298;2023-04-06T16:31:42;16;14;9.5
57798;PMS7003;43626;53.866;30.298;2023-04-06T16:36:08;14.8;13;8.2
57798;PMS7003;43626;53.866;30.298;2023-04-06T16:41:42;15.8;13.4;9.2
57798;PMS7003;43626;53.866;30.298;2023-04-06T16:46:20;15.4;13;8.6
57798;PMS7003;43626;53.866;30.298;2023-04-06T16:51:02;16.4;13.6;9
57798;PMS7003;43626;53.866;30.298;2023-04-06T16:56:32;23;21.4;14.8
57798;PMS7003;43626;53.866;30.298;2023-04-06T17:01:00;17;15.8;10.6
57798;PMS7003;43626;53.866;30.298;2023-04-06T17:06:42;17.8;14.8;9.6
57798;PMS7003;43626;53.866;30.298;2023-04-06T17:11:22;15;13.6;9.2
57798;PMS7003;43626;53.866;30.298;2023-04-06T17:16:00;13.2;12.2;9
57798;PMS7003;43626;53.866;30.298;2023-04-06T17:21:18;14.8;13;9.2
57798;PMS7003;43626;53.866;30.298;2023-04-06T17:26:08;15.8;13.4;9.6
57798;PMS7003;43626;53.866;30.298;2023-04-06T17:31:42;12.8;12;8.6
57798;PMS7003;43626;53.866;30.298;2023-04-06T17:36:22;13.8;12.3;8.5
57798;PMS7003;43626;53.866;30.298;2023-04-06T17:41:00;13.6;13.4;9
57798;PMS7003;43626;53.866;30.298;2023-04-06T17:46:34;14.8;13.8;9
57798;PMS7003;43626;53.866;30.298;2023-04-06T17:51:14;15.6;13.4;8.6
57798;PMS7003;43626;53.866;30.298;2023-04-06T17:56:42;15.2;13.4;8.4
57798;PMS7003;43626;53.866;30.298;2023-04-06T18:01:14;16.4;13.6;9.4
57798;PMS7003;43626;53.866;30.298;2023-04-06T18:06:07;18;14.4;9.2
57798;PMS7003;43626;53.866;30.298;2023-04-06T18:11:34;17.4;14.4;9.2
57798;PMS7003;43626;53.866;30.298;2023-04-06T18:16:00;16.8;14.4;9.2
57798;PMS7003;43626;53.866;30.298;2023-04-06T18:21:44;17.4;13.2;9.4
57798;PMS7003;43626;53.866;30.298;2023-04-06T18:26:13;16;13.6;8.6
57798;PMS7003;43626;53.866;30.298;2023-04-06T18:31:00;13.2;12.8;8
57798;PMS7003;43626;53.866;30.298;2023-04-06T18:36:12;14;12.5;8.3
57798;PMS7003;43626;53.866;30.298;2023-04-06T18:41:10;15.4;13;8.8
57798;PMS7003;43626;53.866;30.298;2023-04-06T18:46:44;15.4;12.8;9.4
57798;PMS7003;43626;53.866;30.298;2023-04-06T18:51:10;14.4;12.8;8.8
57798;PMS7003;43626;53.866;30.298;2023-04-06T18:56:44;15.4;13.6;9.2
57798;PMS7003;43626;53.866;30.298;2023-04-06T19:01:00;16;13.4;9.2
57798;PMS7003;43626;53.866;30.298;2023-04-06T19:06:00;14.8;12.4;8.6
57798;PMS7003;43626;53.866;30.298;2023-04-06T19:11:28;13.4;12.4;8.2
57798;PMS7003;43626;53.866;30.298;2023-04-06T19:16:00;13.6;12.2;8.4
57798;PMS7003;43626;53.866;30.298;2023-04-06T19:21:00;15;13.8;8.6
57798;PMS7003;43626;53.866;30.298;2023-04-06T19:26:34;15.6;13;8.2
57798;PMS7003;43626;53.866;30.298;2023-04-06T19:31:00;14.6;12.2;8.8
57798;PMS7003;43626;53.866;30.298;2023-04-06T19:36:44;16;14.3;9
57798;PMS7003;43626;53.866;30.298;2023-04-06T19:41:10;17.8;14.8;9.6
57798;PMS7003;43626;53.866;30.298;2023-04-06T19:46:00;14;13;8.8
57798;PMS7003;43626;53.866;30.298;2023-04-06T19:51:32;16.8;14.2;8.8
57798;PMS7003;43626;53.866;30.298;2023-04-06T19:56:00;15.4;13.4;8.8
57798;PMS7003;43626;53.866;30.298;2023-04-06T20:01:42;16.2;12.4;7.6
57798;PMS7003;43626;53.866;30.298;2023-04-06T20:06:22;16.8;13.4;8.6
57798;PMS7003;43626;53.866;30.298;2023-04-06T20:11:44;15.4;12.2;8.4
57798;PMS7003;43626;53.866;30.298;2023-04-06T20:16:36;13.8;13;8.8
57798;PMS7003;43626;53.866;30.298;2023-04-06T20:21:10;13.4;12.2;8
57798;PMS7003;43626;53.866;30.298;2023-04-06T20:26:44;14;12.2;8.4
57798;PMS7003;43626;53.866;30.298;2023-04-06T20:31:24;13.8;12.4;8.6
57798;PMS7003;43626;53.866;30.298;2023-04-06T20:36:00;13;12;7.3
57798;PMS7003;43626;53.866;30.298;2023-04-06T20:41:44;15.6;12.2;8.2
57798;PMS7003;43626;53.866;30.298;2023-04-06T20:46:13;14.2;12.2;8.4
57798;PMS7003;43626;53.866;30.298;2023-04-06T20:51:28;14;12.8;8.6
57798;PMS7003;43626;53.866;30.298;2023-04-06T20:56:24;14.8;13.2;8.8
57798;PMS7003;43626;53.866;30.298;2023-04-06T21:01:28;15;13.2;8.8
57798;PMS7003;43626;53.866;30.298;2023-04-06T21:06:44;15.4;13.6;8.6
57798;PMS7003;43626;53.866;30.298;2023-04-06T21:11:10;20;16.4;9.6
57798;PMS7003;43626;53.866;30.298;2023-04-06T21:16:28;18.6;16.2;9.4
57798;PMS7003;43626;53.866;30.298;2023-04-06T21:21:14;21.6;16.8;10.6
57798;PMS7003;43626;53.866;30.298;2023-04-06T21:26:28;14.8;12.6;8.8
57798;PMS7003;43626;53.866;30.298;2023-04-06T21:31:44;16.4;13.4;8.8
57798;PMS7003;43626;53.866;30.298;2023-04-06T21:36:02;13.8;12;8.2
57798;PMS7003;43626;53.866;30.298;2023-04-06T21:41:28;19;15.5;10.3
57798;PMS7003;43626;53.866;30.298;2023-04-06T21:46:22;15.8;13.8;9.2
57798;PMS7003;43626;53.866;30.298;2023-04-06T21:51:28;13.8;12.4;8.6
57798;PMS7003;43626;53.866;30.298;2023-04-06T21:56:42;14.4;13;8.2
57798;PMS7003;43626;53.866;30.298;2023-04-06T22:01:10;14.4;13.6;8.2
57798;PMS7003;43626;53.866;30.298;2023-04-06T22:06:28;15.4;14;9.6
57798;PMS7003;43626;53.866;30.298;2023-04-06T22:11:24;15;14;8.8
57798;PMS7003;43626;53.866;30.298;2023-04-06T22:16:28;17.4;15;9.4
57798;PMS7003;43626;53.866;30.298;2023-04-06T22:21:44;16;12.4;8.6
57798;PMS7003;43626;53.866;30.298;2023-04-06T22:26:10;15.6;14.4;8.8
57798;PMS7003;43626;53.866;30.298;2023-04-06T22:31:28;15.6;13;9.2
57798;PMS7003;43626;53.866;30.298;2023-04-06T22:36:22;15.2;14.4;9.8
57798;PMS7003;43626;53.866;30.298;2023-04-06T22:41:28;16.5;15.3;10
57798;PMS7003;43626;53.866;30.298;2023-04-06T22:46:44;17;14.8;9.6
57798;PMS7003;43626;53.866;30.298;2023-04-06T22:51:00;17.6;15.4;10.2
57798;PMS7003;43626;53.866;30.298;2023-04-06T22:56:22;17;15;10.6
57798;PMS7003;43626;53.866;30.298;2023-04-06T23:01:36;15.8;13.8;9
57798;PMS7003;43626;53.866;30.298;2023-04-06T23:06:28;16.2;14.4;9.6
57798;PMS7003;43626;53.866;30.298;2023-04-06T23:11:44;17.2;14.2;9.2
57798;PMS7003;43626;53.866;30.298;2023-04-06T23:16:07;17.2;15;10
57798;PMS7003;43626;53.866;30.298;2023-04-06T23:21:28;16.8;14.6;9.8
57798;PMS7003;43626;53.866;30.298;2023-04-06T23:26:00;17.6;15;10.2
57798;PMS7003;43626;53.866;30.298;2023-04-06T23:31:44;17.8;15.2;10.4
57798;PMS7003;43626;53.866;30.298;2023-04-06T23:36:42;18;16.4;11.4
57798;PMS7003;43626;53.866;30.298;2023-04-06T23:41:16;17.3;15.5;11
57798;PMS7003;43626;53.866;30.298;2023-04-06T23:46:28;18.6;15.2;10.2
57798;PMS7003;43626;53.866;30.298;2023-04-06T23:51:00;16.8;16;10.6
57798;PMS7003;43626;53.866;30.298;2023-04-06T23:56:28;17.8;15.6;10.2
